Time;durP1;ratioP1;P1;durP2;ratioP2;P2;SDS_P1;SDS_P2;PMS_P1;PMS_P2;Temp;Humidity;BMP_temperature;BMP_pressure;BME280_temperature;BME280_humidity;BME280_pressure;Samples;Min_cycle;Max_cycle;Signal;HPM_P1;HPM_P2
2022/09/12 00:01:15;;;;;;;61.92;28.48;;;;;;;-145.01;100.00;64805.59;5050058;28;20029;-55
2022/09/12 00:03:41;;;;;;;67.10;30.63;;;;;;;-145.01;100.00;64805.59;5054683;28;20035;-55
2022/09/12 00:06:14;;;;;;;68.70;29.05;;;;;;;-145.01;100.00;64805.59;5057365;28;20029;-55
2022/09/12 00:08:39;;;;;;;76.13;31.58;;;;;;;-145.01;100.00;64805.59;5082412;28;20121;-54
2022/09/12 00:11:07;;;;;;;76.18;30.98;;;;;;;-145.01;100.00;64805.59;5052973;28;20487;-54
2022/09/12 00:13:33;;;;;;;63.55;28.27;;;;;;;-145.01;100.00;64805.59;5054069;28;20028;-53
2022/09/12 00:15:58;;;;;;;70.10;29.40;;;;;;;-145.01;100.00;64805.59;5054628;28;20040;-55
2022/09/12 00:18:24;;;;;;;73.82;30.65;;;;;;;-145.01;100.00;64805.59;5054515;28;20039;-54
2022/09/12 00:20:49;;;;;;;68.15;31.30;;;;;;;-145.01;100.00;64805.59;5053757;28;20093;-55
2022/09/12 00:23:14;;;;;;;73.05;31.98;;;;;;;-145.01;100.00;64805.59;5048104;28;20153;-54
2022/09/12 00:25:44;;;;;;;67.75;30.83;;;;;;;-145.01;100.00;64805.59;5049823;28;20025;-54
2022/09/12 00:28:10;;;;;;;76.18;31.40;;;;;;;-145.01;100.00;64805.59;5054502;28;20033;-55
2022/09/12 00:30:42;;;;;;;75.55;33.17;;;;;;;-145.01;100.00;64805.59;5050068;28;20103;-54
2022/09/12 00:33:09;;;;;;;71.68;32.25;;;;;;;-145.01;100.00;64805.59;5055113;28;20075;-54
2022/09/12 00:35:48;;;;;;;69.43;30.35;;;;;;;-145.01;100.00;64805.59;5049136;28;20032;-55
2022/09/12 00:38:14;;;;;;;67.38;29.25;;;;;;;-145.01;100.00;64805.59;5053045;28;20479;-54
2022/09/12 00:40:40;;;;;;;63.55;27.85;;;;;;;-145.01;100.00;64805.59;5052833;28;20032;-54
2022/09/12 00:43:05;;;;;;;61.05;26.23;;;;;;;-145.01;100.00;64805.59;5054352;28;20021;-54
2022/09/12 00:45:31;;;;;;;57.10;27.27;;;;;;;-145.01;100.00;64805.59;5054384;28;20017;-54
2022/09/12 00:47:58;;;;;;;56.33;26.70;;;;;;;-145.01;100.00;64805.59;5049374;28;20379;-54
2022/09/12 00:50:23;;;;;;;61.45;28.65;;;;;;;-145.01;100.00;64805.59;5049529;28;20025;-52
2022/09/12 00:52:51;;;;;;;57.95;26.77;;;;;;;-145.01;100.00;64805.59;5059967;28;20022;-54
2022/09/12 00:55:40;;;;;;;59.53;25.98;;;;;;;-145.01;100.00;64805.59;5048484;28;20029;-54
2022/09/12 00:58:05;;;;;;;60.58;28.48;;;;;;;-145.01;100.00;64805.59;5081500;28;20025;-55
2022/09/12 01:00:30;;;;;;;68.70;30.08;;;;;;;-145.01;100.00;64805.59;5051163;28;20120;-55
2022/09/12 01:03:00;;;;;;;85.05;31.55;;;;;;;-145.01;100.00;64805.59;5048587;28;20016;-54
2022/09/12 01:05:26;;;;;;;75.95;32.55;;;;;;;-145.01;100.00;64805.59;5053897;28;20048;-54
2022/09/12 01:07:52;;;;;;;77.60;31.30;;;;;;;-145.01;100.00;64805.59;5044385;28;20032;-54
2022/09/12 01:10:17;;;;;;;75.68;30.55;;;;;;;-145.01;100.00;64805.59;5055291;28;20087;-54
2022/09/12 01:12:43;;;;;;;77.60;31.60;;;;;;;-145.01;100.00;64805.59;5049398;28;20021;-54
2022/09/12 01:15:08;;;;;;;82.03;32.47;;;;;;;-145.01;100.00;64805.59;5048977;28;20029;-55
2022/09/12 01:18:12;;;;;;;76.88;31.42;;;;;;;-145.01;100.00;64805.59;5054740;28;20025;-55
2022/09/12 01:20:50;;;;;;;78.60;31.92;;;;;;;-145.01;100.00;64805.59;5037023;28;20037;-54
2022/09/12 01:23:43;;;;;;;75.20;30.45;;;;;;;-145.01;100.00;64805.59;5049098;28;20029;-55
2022/09/12 01:26:26;;;;;;;72.88;29.08;;;;;;;-145.01;100.00;64805.59;5054763;28;20063;-55
2022/09/12 01:28:51;;;;;;;76.35;31.42;;;;;;;-145.01;100.00;64805.59;5047572;28;20032;-55
2022/09/12 01:31:39;;;;;;;86.97;33.22;;;;;;;-145.01;100.00;64805.59;5049188;28;20493;-54
2022/09/12 01:34:26;;;;;;;86.50;33.38;;;;;;;-145.01;100.00;64805.59;5044963;28;20032;-54
2022/09/12 01:36:57;;;;;;;85.13;33.63;;;;;;;-145.01;100.00;64805.59;5055377;28;20100;-54
2022/09/12 01:39:30;;;;;;;74.40;30.02;;;;;;;-145.01;100.00;64805.59;5052791;28;20033;-55
2022/09/12 01:42:06;;;;;;;81.93;31.20;;;;;;;-145.01;100.00;64805.59;5047681;28;20021;-54
2022/09/12 01:44:41;;;;;;;74.13;30.88;;;;;;;-145.01;100.00;64805.59;5050831;28;20425;-54
2022/09/12 01:47:46;;;;;;;73.85;30.33;;;;;;;-145.01;100.00;64805.59;5055489;28;20123;-54
2022/09/12 01:50:23;;;;;;;65.25;28.55;;;;;;;-145.01;100.00;64805.59;5064894;28;20059;-54
2022/09/12 01:53:15;;;;;;;70.15;29.92;;;;;;;-145.01;100.00;64805.59;5037237;28;20048;-54
2022/09/12 01:55:53;;;;;;;71.60;31.17;;;;;;;-145.01;100.00;64805.59;5037271;28;20021;-55
2022/09/12 01:58:45;;;;;;;83.38;33.08;;;;;;;-145.01;100.00;64805.59;5076577;28;20699;-54
2022/09/12 02:01:45;;;;;;;87.93;33.58;;;;;;;-145.01;100.00;64805.59;5037523;28;20433;-55
2022/09/12 02:04:19;;;;;;;82.53;34.45;;;;;;;-145.01;100.00;64805.59;5054061;28;20105;-54
2022/09/12 02:06:51;;;;;;;82.82;32.55;;;;;;;-145.01;100.00;64805.59;5056347;28;20395;-54
2022/09/12 02:09:33;;;;;;;75.80;30.55;;;;;;;-145.01;100.00;64805.59;5054286;28;20074;-51
2022/09/12 02:11:59;;;;;;;66.65;29.10;;;;;;;-145.01;100.00;64805.59;5046179;28;20054;-52
2022/09/12 02:14:27;;;;;;;72.97;29.27;;;;;;;-145.01;100.00;64805.59;5050653;28;20413;-54
2022/09/12 02:16:57;;;;;;;71.25;29.80;;;;;;;-145.01;100.00;64805.59;5041577;28;20112;-55
2022/09/12 02:19:24;;;;;;;71.60;29.88;;;;;;;-145.01;100.00;64805.59;5033883;28;20025;-54
2022/09/12 02:21:55;;;;;;;72.95;30.98;;;;;;;-145.01;100.00;64805.59;5073040;28;20036;-52
2022/09/12 02:24:22;;;;;;;81.15;32.30;;;;;;;-145.01;100.00;64805.59;5058838;28;20495;-54
2022/09/12 02:26:50;;;;;;;85.38;33.10;;;;;;;-145.01;100.00;64805.59;5034001;28;20445;-52
2022/09/12 02:29:15;;;;;;;75.28;31.20;;;;;;;-145.01;100.00;64805.59;5046028;28;20072;-54
2022/09/12 02:31:48;;;;;;;80.40;32.25;;;;;;;-145.01;100.00;64805.59;5049928;28;20103;-54
2022/09/12 02:34:38;;;;;;;85.93;32.33;;;;;;;-145.01;100.00;64805.59;5050159;28;20110;-54
2022/09/12 02:37:06;;;;;;;88.22;33.60;;;;;;;-145.01;100.00;64805.59;5051875;28;20033;-55
2022/09/12 02:39:32;;;;;;;89.93;33.60;;;;;;;-145.01;100.00;64805.59;5055839;28;20056;-54
2022/09/12 02:41:58;;;;;;;111.68;38.28;;;;;;;-145.01;100.00;64805.59;5050555;28;20380;-54
2022/09/12 02:44:24;;;;;;;105.35;35.65;;;;;;;-145.01;100.00;64805.59;5053508;28;20098;-55
2022/09/12 02:46:52;;;;;;;99.60;36.20;;;;;;;-145.01;100.00;64805.59;5063162;28;20024;-54
2022/09/12 02:49:17;;;;;;;88.25;35.72;;;;;;;-145.01;100.00;64805.59;5055734;28;20086;-54
2022/09/12 02:51:43;;;;;;;100.55;34.50;;;;;;;-145.01;100.00;64805.59;5058134;28;20024;-54
2022/09/12 02:54:09;;;;;;;89.43;34.25;;;;;;;-145.01;100.00;64805.59;5033399;28;20121;-54
2022/09/12 02:56:35;;;;;;;82.28;32.67;;;;;;;-145.01;100.00;64805.59;5050112;28;20475;-55
2022/09/12 02:59:02;;;;;;;83.97;32.17;;;;;;;-145.01;100.00;64805.59;5051949;28;20032;-54
2022/09/12 03:01:59;;;;;;;88.30;32.53;;;;;;;-145.01;100.00;64805.59;5054539;28;20386;-54
2022/09/12 03:04:47;;;;;;;105.97;35.85;;;;;;;-145.01;100.00;64805.59;5058424;28;20075;-54
2022/09/12 03:07:36;;;;;;;97.65;36.53;;;;;;;-145.01;100.00;64805.59;5049895;28;20032;-54
2022/09/12 03:10:11;;;;;;;109.00;38.22;;;;;;;-145.01;100.00;64805.59;5051580;28;20029;-54
2022/09/12 03:12:48;;;;;;;113.68;36.53;;;;;;;-145.01;100.00;64805.59;5050418;28;20049;-54
2022/09/12 03:15:39;;;;;;;105.40;34.95;;;;;;;-145.01;100.00;64805.59;5051743;28;20063;-54
2022/09/12 03:18:18;;;;;;;91.35;33.35;;;;;;;-145.01;100.00;64805.59;5056572;28;20131;-55
2022/09/12 03:21:02;;;;;;;85.00;31.60;;;;;;;-145.01;100.00;64805.59;5051785;28;20029;-54
2022/09/12 03:23:32;;;;;;;89.88;31.33;;;;;;;-145.01;100.00;64805.59;5051976;28;20025;-53
2022/09/12 03:26:06;;;;;;;82.40;30.20;;;;;;;-145.01;100.00;64805.59;5050140;28;20025;-52
2022/09/12 03:28:32;;;;;;;76.80;29.15;;;;;;;-145.01;100.00;64805.59;5053627;28;20028;-54
2022/09/12 03:30:58;;;;;;;65.68;28.92;;;;;;;-145.01;100.00;64805.59;5066679;28;20029;-54
2022/09/12 03:33:24;;;;;;;67.72;28.60;;;;;;;-145.01;100.00;64805.59;5058119;28;20020;-54
2022/09/12 03:35:49;;;;;;;97.50;33.55;;;;;;;-145.01;100.00;64805.59;5063398;28;20035;-54
2022/09/12 03:38:15;;;;;;;113.90;38.22;;;;;;;-145.01;100.00;64805.59;5052396;28;20063;-54
2022/09/12 03:40:40;;;;;;;111.05;39.80;;;;;;;-145.01;100.00;64805.59;5051153;28;20449;-54
2022/09/12 03:43:06;;;;;;;115.70;37.95;;;;;;;-145.01;100.00;64805.59;5056500;28;20050;-54
2022/09/12 03:45:32;;;;;;;118.15;38.17;;;;;;;-145.01;100.00;64805.59;5049289;28;20033;-54
2022/09/12 03:47:58;;;;;;;117.95;39.13;;;;;;;-145.01;100.00;64805.59;5058667;28;20509;-55
2022/09/12 03:50:23;;;;;;;116.00;37.72;;;;;;;-145.01;100.00;64805.59;5048353;28;20052;-53
2022/09/12 03:52:48;;;;;;;128.88;40.33;;;;;;;-145.01;100.00;64805.59;5057659;28;20040;-52
2022/09/12 03:55:14;;;;;;;134.05;40.58;;;;;;;-145.01;100.00;64805.59;5055518;28;20056;-55
2022/09/12 03:57:39;;;;;;;120.93;38.40;;;;;;;-145.01;100.00;64805.59;5083395;28;20102;-55
2022/09/12 04:00:07;;;;;;;119.00;38.70;;;;;;;-145.01;100.00;64805.59;5050590;28;20024;-52
2022/09/12 04:02:33;;;;;;;124.55;40.13;;;;;;;-145.01;100.00;64805.59;5050798;28;20483;-54
2022/09/12 04:04:58;;;;;;;107.78;37.58;;;;;;;-145.01;100.00;64805.59;5054215;28;20041;-54
2022/09/12 04:07:25;;;;;;;90.55;33.35;;;;;;;-145.01;100.00;64805.59;5054682;28;20445;-52
2022/09/12 04:09:52;;;;;;;88.47;32.42;;;;;;;-145.01;100.00;64805.59;5051576;28;20025;-50
2022/09/12 04:12:17;;;;;;;85.30;32.10;;;;;;;-145.01;100.00;64805.59;5057829;28;20043;-53
2022/09/12 04:14:43;;;;;;;77.93;29.25;;;;;;;-145.01;100.00;64805.59;5050567;28;20059;-53
2022/09/12 04:17:08;;;;;;;78.90;30.60;;;;;;;-145.01;100.00;64805.59;5050174;28;20029;-54
2022/09/12 04:19:33;;;;;;;86.63;32.42;;;;;;;-145.01;100.00;64805.59;5055724;28;20021;-55
2022/09/12 04:21:59;;;;;;;82.85;32.70;;;;;;;-145.01;100.00;64805.59;5050451;28;20050;-52
2022/09/12 04:24:24;;;;;;;89.82;33.15;;;;;;;-145.01;100.00;64805.59;5050346;28;20044;-53
2022/09/12 04:26:50;;;;;;;80.97;29.25;;;;;;;-145.01;100.00;64805.59;5050163;28;20024;-54
2022/09/12 04:29:15;;;;;;;84.80;30.98;;;;;;;-145.01;100.00;64805.59;5059337;28;20376;-53
2022/09/12 04:31:41;;;;;;;78.70;30.33;;;;;;;-145.01;100.00;64805.59;5053702;28;20048;-54
2022/09/12 04:34:06;;;;;;;76.32;29.25;;;;;;;-145.01;100.00;64805.59;5061337;28;20029;-54
2022/09/12 04:36:33;;;;;;;81.07;30.15;;;;;;;-145.01;100.00;64805.59;5053903;28;20016;-52
2022/09/12 04:38:59;;;;;;;100.00;32.55;;;;;;;-145.01;100.00;64805.59;5033446;28;20116;-55
2022/09/12 04:41:26;;;;;;;106.03;33.83;;;;;;;-145.01;100.00;64805.59;5049700;28;20044;-54
2022/09/12 04:44:02;;;;;;;95.65;33.38;;;;;;;-145.01;100.00;64805.59;5054519;28;20085;-55
2022/09/12 04:46:29;;;;;;;88.85;31.70;;;;;;;-145.01;100.00;64805.59;5055637;28;20034;-54
2022/09/12 04:48:54;;;;;;;106.35;35.13;;;;;;;-145.01;100.00;64805.59;5055802;28;20025;-55
2022/09/12 04:51:21;;;;;;;92.65;34.42;;;;;;;-145.01;100.00;64805.59;5052642;28;20025;-55
2022/09/12 04:53:48;;;;;;;83.80;32.50;;;;;;;-145.01;100.00;64805.59;5061243;28;20017;-54
2022/09/12 04:56:13;;;;;;;85.03;32.25;;;;;;;-145.01;100.00;64805.59;5049520;28;20033;-55
2022/09/12 04:58:39;;;;;;;80.45;31.20;;;;;;;-145.01;100.00;64805.59;5056145;28;20498;-54
2022/09/12 05:01:06;;;;;;;75.88;29.98;;;;;;;-145.01;100.00;64805.59;5052013;28;20017;-56
2022/09/12 05:03:32;;;;;;;75.63;30.23;;;;;;;-145.01;100.00;64805.59;5055271;28;20492;-53
2022/09/12 05:05:57;;;;;;;78.25;27.40;;;;;;;-145.01;100.00;64805.59;5053519;28;20082;-55
2022/09/12 05:08:22;;;;;;;67.22;27.60;;;;;;;-145.01;100.00;64805.59;5052187;28;20353;-51
2022/09/12 05:10:48;;;;;;;65.80;27.67;;;;;;;-145.01;100.00;64805.59;5049733;28;20503;-54
2022/09/12 05:13:13;;;;;;;59.42;25.88;;;;;;;-145.01;100.00;64805.59;5055502;28;20029;-55
2022/09/12 05:15:39;;;;;;;61.35;26.23;;;;;;;-145.01;100.00;64805.59;5049145;28;20558;-55
2022/09/12 05:18:05;;;;;;;63.65;24.77;;;;;;;-145.01;100.00;64805.59;5055892;28;20043;-55
2022/09/12 05:20:32;;;;;;;59.28;25.70;;;;;;;-145.01;100.00;64805.59;5058540;28;20032;-54
2022/09/12 05:22:58;;;;;;;61.70;25.52;;;;;;;-145.01;100.00;64805.59;5053590;28;20112;-55
2022/09/12 05:25:24;;;;;;;61.42;25.90;;;;;;;-145.01;100.00;64805.59;5054040;28;20033;-53
2022/09/12 05:27:51;;;;;;;75.28;28.70;;;;;;;-145.01;100.00;64805.59;5059877;28;20021;-52
2022/09/12 05:30:17;;;;;;;66.03;26.88;;;;;;;-145.01;100.00;64805.59;5091569;28;20021;-53
2022/09/12 05:32:42;;;;;;;70.97;27.85;;;;;;;-145.01;100.00;64805.59;5053139;28;20021;-53
2022/09/12 05:35:08;;;;;;;68.55;27.63;;;;;;;-145.01;100.00;64805.59;5056715;28;20705;-53
2022/09/12 05:37:33;;;;;;;69.32;28.48;;;;;;;-145.01;100.00;64805.59;5059750;28;20021;-52
2022/09/12 05:39:58;;;;;;;64.65;27.25;;;;;;;-145.01;100.00;64805.59;5061676;28;20087;-52
2022/09/12 05:42:24;;;;;;;66.15;27.90;;;;;;;-145.01;100.00;64805.59;5059257;28;20029;-53
2022/09/12 05:44:49;;;;;;;73.47;27.75;;;;;;;-145.01;100.00;64805.59;5053056;28;20100;-52
2022/09/12 05:47:16;;;;;;;69.93;27.33;;;;;;;-145.01;100.00;64805.59;5059787;28;20434;-54
2022/09/12 05:49:46;;;;;;;77.70;26.05;;;;;;;-145.01;100.00;64805.59;5056320;28;20111;-54
2022/09/12 05:52:12;;;;;;;66.68;26.45;;;;;;;-145.01;100.00;64805.59;5056523;28;20509;-55
2022/09/12 05:54:37;;;;;;;65.22;25.90;;;;;;;-145.01;100.00;64805.59;5057166;28;20024;-54
2022/09/12 05:57:03;;;;;;;59.28;25.38;;;;;;;-145.01;100.00;64805.59;5062815;28;20040;-55
2022/09/12 05:59:28;;;;;;;53.83;22.73;;;;;;;-145.01;100.00;64805.59;5055750;28;20082;-55
2022/09/12 06:01:54;;;;;;;52.67;21.15;;;;;;;-145.01;100.00;64805.59;5052965;28;20702;-53
2022/09/12 06:04:19;;;;;;;42.53;20.25;;;;;;;-145.01;100.00;64805.59;5053281;28;20056;-55
2022/09/12 06:06:45;;;;;;;50.92;21.70;;;;;;;-145.01;100.00;64805.59;5056392;28;20024;-54
2022/09/12 06:09:11;;;;;;;50.40;22.63;;;;;;;-145.01;100.00;64805.59;5053092;28;20071;-52
2022/09/12 06:11:39;;;;;;;60.08;24.17;;;;;;;-145.01;100.00;64805.59;5051119;28;20033;-54
2022/09/12 06:14:05;;;;;;;52.78;22.40;;;;;;;-145.01;100.00;64805.59;5057723;28;20029;-53
2022/09/12 06:16:31;;;;;;;58.25;23.65;;;;;;;-145.01;100.00;64805.59;5057446;28;20444;-55
2022/09/12 06:19:02;;;;;;;90.07;26.15;;;;;;;-145.01;100.00;64805.59;5052718;28;20021;-54
2022/09/12 06:21:28;;;;;;;185.23;26.02;;;;;;;-145.01;100.00;64805.59;5061384;28;20046;-55
2022/09/12 06:23:54;;;;;;;164.43;27.13;;;;;;;-145.01;100.00;64805.59;5051484;28;20072;-54
2022/09/12 06:26:22;;;;;;;74.22;25.73;;;;;;;-145.01;100.00;64805.59;5054591;28;20391;-56
2022/09/12 06:28:47;;;;;;;65.47;26.42;;;;;;;-145.01;100.00;64805.59;5053882;28;20025;-55
2022/09/12 06:31:18;;;;;;;95.70;25.00;;;;;;;-145.01;100.00;64805.59;5062269;28;20540;-54
2022/09/12 06:33:44;;;;;;;;;;;;;;;-145.01;100.00;64805.59;5058897;28;20021;-55
2022/09/12 06:36:11;;;;;;;74.45;25.40;;;;;;;-145.01;100.00;64805.59;5056788;28;19939;-55
2022/09/12 06:38:37;;;;;;;90.20;26.00;;;;;;;-145.01;100.00;64805.59;5054493;28;20029;-53
2022/09/12 06:41:06;;;;;;;60.13;23.55;;;;;;;-145.01;100.00;64805.59;5051995;28;20031;-54
2022/09/12 06:43:31;;;;;;;64.72;23.95;;;;;;;-145.01;100.00;64805.59;5090554;28;20460;-53
2022/09/12 06:45:57;;;;;;;51.67;23.40;;;;;;;-145.01;100.00;64805.59;5051916;28;20159;-56
2022/09/12 06:48:22;;;;;;;100.15;24.35;;;;;;;-145.01;100.00;64805.59;5063604;28;20025;-55
2022/09/12 06:50:58;;;;;;;119.90;23.42;;;;;;;-145.01;100.00;64805.59;5058020;28;20028;-55
2022/09/12 06:53:24;;;;;;;95.10;22.92;;;;;;;-145.01;100.00;64805.59;5051899;28;20025;-54
2022/09/12 06:55:56;;;;;;;87.70;22.75;;;;;;;-145.01;100.00;64805.59;5051800;28;20028;-53
2022/09/12 06:58:22;;;;;;;60.22;23.40;;;;;;;-145.01;100.00;64805.59;5061441;28;20024;-55
2022/09/12 07:00:48;;;;;;;82.50;23.05;;;;;;;-145.01;100.00;64805.59;5059801;28;20024;-55
2022/09/12 07:03:13;;;;;;;86.60;21.75;;;;;;;-145.01;100.00;64805.59;5056492;28;20029;-54
2022/09/12 07:05:39;;;;;;;47.92;22.05;;;;;;;-145.01;100.00;64805.59;5050896;28;20047;-54
2022/09/12 07:08:04;;;;;;;43.00;20.60;;;;;;;-145.01;100.00;64805.59;5052038;28;20025;-55
2022/09/12 07:10:30;;;;;;;43.08;21.13;;;;;;;-145.01;100.00;64805.59;5057230;28;20040;-54
2022/09/12 07:12:55;;;;;;;106.80;22.27;;;;;;;-145.01;100.00;64805.59;5056121;28;20032;-55
2022/09/12 07:15:21;;;;;;;53.13;22.25;;;;;;;-145.01;100.00;64805.59;5051643;28;20037;-54
2022/09/12 07:17:46;;;;;;;40.38;19.30;;;;;;;-145.01;100.00;64805.59;5057986;28;20379;-52
2022/09/12 07:20:12;;;;;;;42.08;21.10;;;;;;;-145.01;100.00;64805.59;5050754;28;20600;-55
2022/09/12 07:22:37;;;;;;;41.78;21.02;;;;;;;-145.01;100.00;64805.59;5056513;28;20025;-55
2022/09/12 07:25:03;;;;;;;32.80;19.63;;;;;;;-145.01;100.00;64805.59;5055286;28;20049;-54
2022/09/12 07:27:29;;;;;;;39.15;20.98;;;;;;;-145.01;100.00;64805.59;5050824;28;20028;-56
2022/09/12 07:29:54;;;;;;;34.33;19.75;;;;;;;-145.01;100.00;64805.59;5051117;28;20032;-55
2022/09/12 07:32:21;;;;;;;38.10;21.02;;;;;;;-145.01;100.00;64805.59;5056618;28;20029;-55
2022/09/12 07:34:46;;;;;;;40.85;20.25;;;;;;;-145.01;100.00;64805.59;5052767;28;20055;-54
2022/09/12 07:37:11;;;;;;;36.42;20.27;;;;;;;-145.01;100.00;64805.59;5058481;28;20582;-54
2022/09/12 07:39:37;;;;;;;39.67;20.73;;;;;;;-145.01;100.00;64805.59;5056198;28;20408;-56
2022/09/12 07:42:02;;;;;;;33.40;18.27;;;;;;;-145.01;100.00;64805.59;5054278;28;20032;-55
2022/09/12 07:44:28;;;;;;;34.08;18.45;;;;;;;-145.01;100.00;64805.59;5051397;28;20035;-56
2022/09/12 07:46:53;;;;;;;34.25;19.92;;;;;;;-145.01;100.00;64805.59;5051084;28;20464;-55
2022/09/12 07:49:19;;;;;;;35.83;19.95;;;;;;;-145.01;100.00;64805.59;5049189;28;20028;-54
2022/09/12 07:51:44;;;;;;;38.00;20.27;;;;;;;-145.01;100.00;64805.59;5050831;28;20464;-56
2022/09/12 07:54:10;;;;;;;37.83;20.40;;;;;;;-145.01;100.00;64805.59;5050678;28;20451;-56
2022/09/12 07:56:35;;;;;;;39.63;21.65;;;;;;;-145.01;100.00;64805.59;5050787;28;20033;-56
2022/09/12 07:59:01;;;;;;;38.42;21.33;;;;;;;-145.01;100.00;64805.59;5054769;28;20060;-55
2022/09/12 08:01:26;;;;;;;36.97;20.95;;;;;;;-145.01;100.00;64805.59;5058915;28;20028;-55
2022/09/12 08:03:53;;;;;;;36.95;20.02;;;;;;;-145.01;100.00;64805.59;5056589;28;20063;-55
2022/09/12 08:06:20;;;;;;;41.65;20.10;;;;;;;-145.01;100.00;64805.59;5061259;28;20036;-57
2022/09/12 08:08:46;;;;;;;34.50;19.27;;;;;;;-145.01;100.00;64805.59;5049011;28;20108;-57
2022/09/12 08:11:13;;;;;;;34.17;19.75;;;;;;;-145.01;100.00;64805.59;5057360;28;20047;-57
2022/09/12 08:13:39;;;;;;;40.60;20.83;;;;;;;-145.01;100.00;64805.59;5054071;28;20063;-56
2022/09/12 08:16:06;;;;;;;39.90;20.80;;;;;;;-145.01;100.00;64805.59;5057745;28;20028;-54
2022/09/12 08:18:33;;;;;;;30.15;19.00;;;;;;;-145.01;100.00;64805.59;5048830;28;20033;-55
2022/09/12 08:20:59;;;;;;;30.88;17.80;;;;;;;-145.01;100.00;64805.59;5048454;28;20033;-56
2022/09/12 08:23:26;;;;;;;32.28;16.25;;;;;;;-145.01;100.00;64805.59;5050967;28;20024;-55
2022/09/12 08:25:54;;;;;;;23.67;14.48;;;;;;;-145.01;100.00;64805.59;5050333;28;20174;-56
2022/09/12 08:28:20;;;;;;;31.00;16.33;;;;;;;-145.01;100.00;64805.59;5054432;28;20025;-56
2022/09/12 08:30:45;;;;;;;31.83;17.17;;;;;;;-145.01;100.00;64805.59;5056024;28;20379;-56
2022/09/12 08:33:10;;;;;;;28.95;17.45;;;;;;;-145.01;100.00;64805.59;5051851;28;20052;-59
2022/09/12 08:35:36;;;;;;;32.42;16.52;;;;;;;-145.01;100.00;64805.59;5052816;28;20469;-55
2022/09/12 08:38:01;;;;;;;35.92;18.45;;;;;;;-145.01;100.00;64805.59;5050312;28;20035;-55
2022/09/12 08:40:27;;;;;;;26.00;16.65;;;;;;;-145.01;100.00;64805.59;5048669;28;20029;-55
2022/09/12 08:43:01;;;;;;;32.25;18.42;;;;;;;-145.01;100.00;64805.59;5086088;28;20021;-55
2022/09/12 08:45:35;;;;;;;32.75;18.63;;;;;;;-145.01;100.00;64805.59;5051370;28;20531;-55
2022/09/12 08:48:01;;;;;;;29.15;18.33;;;;;;;-145.01;100.00;64805.59;5071809;28;20231;-55
2022/09/12 08:50:27;;;;;;;38.30;20.20;;;;;;;-145.01;100.00;64805.59;5041142;28;20041;-56
2022/09/12 08:53:04;;;;;;;38.30;19.73;;;;;;;-145.01;100.00;64805.59;5049928;28;20032;-56
2022/09/12 08:55:37;;;;;;;34.83;19.80;;;;;;;-145.01;100.00;64805.59;5049269;28;20360;-55
2022/09/12 08:58:21;;;;;;;38.60;19.42;;;;;;;-145.01;100.00;64805.59;5055054;28;20076;-54
2022/09/12 09:00:53;;;;;;;39.97;18.92;;;;;;;-145.01;100.00;64805.59;5053534;28;20032;-54
2022/09/12 09:03:37;;;;;;;36.45;19.88;;;;;;;-145.01;100.00;64805.59;5050241;28;20033;-56
2022/09/12 09:06:35;;;;;;;37.55;18.77;;;;;;;-145.01;100.00;64805.59;5054632;28;20032;-55
2022/09/12 09:09:06;;;;;;;44.03;20.00;;;;;;;-145.01;100.00;64805.59;5048308;28;20051;-55
2022/09/12 09:11:53;;;;;;;43.78;21.25;;;;;;;-145.01;100.00;64805.59;5052909;28;20117;-55
2022/09/12 09:14:49;;;;;;;46.53;20.65;;;;;;;-145.01;100.00;64805.59;5049245;28;20024;-55
2022/09/12 09:17:44;;;;;;;44.05;20.27;;;;;;;-145.01;100.00;64805.59;5052774;28;20216;-55
2022/09/12 09:20:31;;;;;;;48.03;21.48;;;;;;;-145.01;100.00;64805.59;5073723;28;20041;-55
2022/09/12 09:23:22;;;;;;;49.05;22.58;;;;;;;-145.01;100.00;64805.59;5054058;28;20341;-53
2022/09/12 09:25:52;;;;;;;43.90;21.63;;;;;;;-145.01;100.00;64805.59;5049794;28;20487;-54
2022/09/12 09:28:24;;;;;;;47.20;22.15;;;;;;;-145.01;100.00;64805.59;5088494;28;20041;-55
2022/09/12 09:30:50;;;;;;;48.90;23.60;;;;;;;-145.01;100.00;64805.59;5031820;28;20025;-54
2022/09/12 09:33:26;;;;;;;44.63;21.92;;;;;;;-145.01;100.00;64805.59;5057894;28;20078;-54
2022/09/12 09:36:03;;;;;;;44.63;21.45;;;;;;;-145.01;100.00;64805.59;5054720;28;20112;-55
2022/09/12 09:38:44;;;;;;;44.10;21.38;;;;;;;-145.01;100.00;64805.59;5049880;28;20056;-54
2022/09/12 09:41:17;;;;;;;45.90;21.88;;;;;;;-145.01;100.00;64805.59;5052821;28;20455;-55
2022/09/12 09:43:43;;;;;;;43.92;21.98;;;;;;;-145.01;100.00;64805.59;5057672;28;20028;-54
2022/09/12 09:46:09;;;;;;;44.67;20.70;;;;;;;-145.01;100.00;64805.59;5056608;28;20368;-52
2022/09/12 09:48:35;;;;;;;47.50;21.77;;;;;;;-145.01;100.00;64805.59;5056520;28;20075;-54
2022/09/12 09:51:02;;;;;;;44.22;21.33;;;;;;;-145.01;100.00;64805.59;5066421;28;20387;-54
2022/09/12 09:53:42;;;;;;;38.38;21.27;;;;;;;-145.01;100.00;64805.59;5035184;28;20032;-55
2022/09/12 09:56:17;;;;;;;;;;;;;;;-145.01;100.00;64805.59;5055066;28;20051;-55
2022/09/12 09:58:43;;;;;;;37.15;20.50;;;;;;;-145.01;100.00;64805.59;5050409;28;19918;-54
2022/09/12 10:01:14;;;;;;;39.30;19.67;;;;;;;-145.01;100.00;64805.59;5057729;28;20021;-54
2022/09/12 10:03:58;;;;;;;45.92;20.60;;;;;;;-145.01;100.00;64805.59;5063827;28;20852;-53
2022/09/12 10:06:29;;;;;;;40.47;21.10;;;;;;;-145.01;100.00;64805.59;5065069;28;20036;-57
2022/09/12 10:09:22;;;;;;;33.97;20.05;;;;;;;-145.01;100.00;64805.59;5068280;28;20033;-54
2022/09/12 10:11:50;;;;;;;36.03;19.77;;;;;;;-145.01;100.00;64805.59;5055745;28;20036;-53
2022/09/12 10:14:24;;;;;;;42.83;19.65;;;;;;;-145.01;100.00;64805.59;5055806;28;20418;-54
2022/09/12 10:16:53;;;;;;;40.50;19.73;;;;;;;-145.01;100.00;64805.59;5055898;28;20035;-54
2022/09/12 10:19:39;;;;;;;40.95;19.20;;;;;;;-145.01;100.00;64805.59;5055510;28;20100;-54
2022/09/12 10:22:04;;;;;;;34.67;19.95;;;;;;;-145.01;100.00;64805.59;5065507;28;20035;-54
2022/09/12 10:24:40;;;;;;;38.80;19.35;;;;;;;-145.01;100.00;64805.59;5068223;28;20021;-54
2022/09/12 10:27:11;;;;;;;33.55;17.92;;;;;;;-145.01;100.00;64805.59;5051384;28;20116;-54
2022/09/12 10:29:52;;;;;;;36.58;19.48;;;;;;;-145.01;100.00;64805.59;5052458;28;20033;-55
2022/09/12 10:32:28;;;;;;;31.63;18.08;;;;;;;-145.01;100.00;64805.59;5053485;28;20033;-55
2022/09/12 10:34:55;;;;;;;35.47;17.23;;;;;;;-145.01;100.00;64805.59;5053955;28;20480;-54
2022/09/12 10:37:41;;;;;;;31.98;16.98;;;;;;;-145.01;100.00;64805.59;5067941;28;20376;-53
2022/09/12 10:40:18;;;;;;;40.30;17.27;;;;;;;-145.01;100.00;64805.59;5058193;28;20020;-55
2022/09/12 10:42:51;;;;;;;27.63;16.15;;;;;;;-145.01;100.00;64805.59;5057310;28;20025;-52
2022/09/12 10:45:19;;;;;;;39.85;16.88;;;;;;;-145.01;100.00;64805.59;5052255;28;20102;-52
2022/09/12 10:47:44;;;;;;;26.00;15.27;;;;;;;-145.01;100.00;64805.59;5057938;28;20448;-54
2022/09/12 10:50:29;;;;;;;26.63;16.52;;;;;;;-145.01;100.00;64805.59;5058398;28;20033;-54
2022/09/12 10:53:24;;;;;;;23.75;15.07;;;;;;;-145.01;100.00;64805.59;5057695;28;20064;-53
2022/09/12 10:56:01;;;;;;;27.48;14.23;;;;;;;-145.01;100.00;64805.59;5057553;28;20360;-55
2022/09/12 10:58:52;;;;;;;23.55;13.88;;;;;;;-145.01;100.00;64805.59;5050916;28;20478;-53
2022/09/12 11:01:37;;;;;;;24.92;12.90;;;;;;;-145.01;100.00;64805.59;5056394;28;20155;-53
2022/09/12 11:04:37;;;;;;;22.27;13.90;;;;;;;-145.01;100.00;64805.59;5050685;28;20041;-53
2022/09/12 11:07:12;;;;;;;26.30;13.57;;;;;;;-145.01;100.00;64805.59;5051604;28;20118;-53
2022/09/12 11:09:56;;;;;;;20.42;12.00;;;;;;;-145.01;100.00;64805.59;5050421;28;20075;-53